createdAt,value
2022-11-15T00:00:39.657Z,40.05
2022-11-15T00:03:29.100Z,37.65
2022-11-15T00:06:19.570Z,37.30
2022-11-15T00:09:07.360Z,37.30
2022-11-15T00:11:57.454Z,38.45
2022-11-15T00:14:45.877Z,36.88
2022-11-15T00:17:33.857Z,36.83
2022-11-15T00:20:22.404Z,38.35
2022-11-15T00:23:10.956Z,33.40
2022-11-15T00:25:59.901Z,34.40
2022-11-15T00:28:47.619Z,34.58
2022-11-15T00:31:35.371Z,34.97
2022-11-15T00:34:25.994Z,32.42
2022-11-15T00:37:14.072Z,35.60
2022-11-15T00:40:04.880Z,34.85
2022-11-15T00:42:53.536Z,33.38
2022-11-15T00:45:41.312Z,33.40
2022-11-15T00:48:30.075Z,34.85
2022-11-15T00:51:17.877Z,36.22
2022-11-15T00:54:07.893Z,34.97
2022-11-15T00:56:58.172Z,38.08
2022-11-15T00:59:45.885Z,37.35
2022-11-15T01:02:34.476Z,38.17
2022-11-15T01:05:22.733Z,37.22
2022-11-15T01:08:16.270Z,38.70
2022-11-15T01:13:56.648Z,38.65
2022-11-15T01:16:44.796Z,37.17
2022-11-15T01:19:33.224Z,33.33
2022-11-15T01:22:21.364Z,37.90
2022-11-15T01:25:10.037Z,38.25
2022-11-15T01:27:57.869Z,39.20
2022-11-15T01:30:45.851Z,34.67
2022-11-15T01:33:37.704Z,35.95
2022-11-15T01:36:26.039Z,36.22
2022-11-15T01:39:14.883Z,36.80
2022-11-15T01:42:02.898Z,36.97
2022-11-15T01:44:53.019Z,38.08
2022-11-15T01:47:45.226Z,34.70
2022-11-15T01:50:34.443Z,39.63
2022-11-15T01:53:25.798Z,38.17
2022-11-15T01:56:19.524Z,35.38
2022-11-15T01:59:09.679Z,35.80
2022-11-15T02:01:58.226Z,34.13
2022-11-15T02:04:48.536Z,38.00
2022-11-15T02:07:37.242Z,35.38
2022-11-15T02:10:26.464Z,37.65
2022-11-15T02:13:16.609Z,36.78
2022-11-15T02:16:35.834Z,37.53
2022-11-15T02:19:40.335Z,33.85
2022-11-15T02:22:50.220Z,35.20
2022-11-15T02:25:56.650Z,37.35
2022-11-15T02:28:49.183Z,38.90
2022-11-15T02:32:10.751Z,35.60
2022-11-15T02:35:07.576Z,36.17
2022-11-15T02:38:06.107Z,36.03
2022-11-15T02:40:55.751Z,35.00
2022-11-15T02:43:58.635Z,36.33
2022-11-15T02:47:08.483Z,34.85
2022-11-15T02:50:01.712Z,36.35
2022-11-15T02:52:50.709Z,36.00
2022-11-15T02:55:50.198Z,34.80
2022-11-15T02:58:59.716Z,36.17
2022-11-15T03:02:14.123Z,36.17
2022-11-15T03:05:10.269Z,39.72
2022-11-15T03:08:07.096Z,32.65
2022-11-15T03:11:12.817Z,36.80
2022-11-15T03:14:09.269Z,34.70
2022-11-15T03:17:04.821Z,33.78
2022-11-15T03:19:55.579Z,32.90
2022-11-15T03:22:46.434Z,35.38
2022-11-15T03:25:36.481Z,36.05
2022-11-15T03:28:32.984Z,36.03
2022-11-15T03:31:30.549Z,32.60
2022-11-15T03:34:50.359Z,36.30
2022-11-15T03:37:55.450Z,35.42
2022-11-15T03:40:49.104Z,33.00
2022-11-15T03:43:51.093Z,34.13
2022-11-15T03:46:48.913Z,34.55
2022-11-15T03:49:45.321Z,33.85
2022-11-15T03:52:35.591Z,33.60
2022-11-15T03:55:24.347Z,36.92
2022-11-15T03:58:12.482Z,31.13
2022-11-15T04:01:00.707Z,35.88
2022-11-15T04:03:48.515Z,31.50
2022-11-15T04:06:37.049Z,30.98
2022-11-15T04:09:24.955Z,33.35
2022-11-15T04:12:13.696Z,31.52
2022-11-15T04:15:10.846Z,30.77
2022-11-15T04:17:59.596Z,29.45
2022-11-15T04:21:03.295Z,30.92
2022-11-15T04:23:54.769Z,34.97
2022-11-15T04:26:43.257Z,32.97
2022-11-15T04:29:36.643Z,32.28
2022-11-15T04:32:24.342Z,30.13
2022-11-15T04:35:13.043Z,31.45
2022-11-15T04:38:01.272Z,32.83
2022-11-15T04:40:49.367Z,32.40
2022-11-15T04:43:39.559Z,34.80
2022-11-15T04:46:28.329Z,33.78
2022-11-15T04:49:16.813Z,32.38
2022-11-15T04:52:05.025Z,32.33
2022-11-15T04:54:53.471Z,31.08
2022-11-15T04:57:41.319Z,35.63
2022-11-15T05:00:30.408Z,35.00
2022-11-15T05:03:34.316Z,36.47
2022-11-15T05:06:22.978Z,32.03
2022-11-15T05:09:10.917Z,36.83
2022-11-15T05:11:59.288Z,35.15
2022-11-15T05:14:47.319Z,33.80
2022-11-15T05:17:35.295Z,33.28
2022-11-15T05:20:23.696Z,31.35
2022-11-15T05:23:11.595Z,33.78
2022-11-15T05:26:06.430Z,35.88
2022-11-15T05:29:01.039Z,31.92
2022-11-15T05:31:49.105Z,32.17
2022-11-15T05:34:37.535Z,32.78
2022-11-15T05:37:25.442Z,33.95
2022-11-15T05:40:13.500Z,33.30
2022-11-15T05:43:06.407Z,31.52
2022-11-15T05:45:58.088Z,33.88
2022-11-15T05:48:53.877Z,33.97
2022-11-15T05:51:44.845Z,35.00
2022-11-15T05:54:34.079Z,36.83
2022-11-15T05:57:22.738Z,35.05
2022-11-15T06:00:11.698Z,39.70
2022-11-15T06:02:59.430Z,42.17
2022-11-15T06:05:47.577Z,46.72
2022-11-15T06:08:35.756Z,43.45
2022-11-15T06:11:26.217Z,39.58
2022-11-15T06:14:13.969Z,40.28
2022-11-15T06:17:03.248Z,39.03
2022-11-15T06:19:53.458Z,37.60
2022-11-15T06:22:43.919Z,35.13
2022-11-15T06:25:33.257Z,38.55
2022-11-15T06:28:21.812Z,40.00
2022-11-15T06:31:12.910Z,40.00
2022-11-15T06:34:00.651Z,40.15
2022-11-15T06:36:49.272Z,39.00
2022-11-15T06:39:37.657Z,40.47
2022-11-15T06:42:26.136Z,40.67
2022-11-15T06:45:14.124Z,45.70
2022-11-15T06:48:02.534Z,42.15
2022-11-15T06:50:54.934Z,44.97
2022-11-15T06:53:42.544Z,46.55
2022-11-15T06:56:30.766Z,44.90
2022-11-15T06:59:18.606Z,45.70
2022-11-15T07:02:07.024Z,93.57
2022-11-15T07:04:57.775Z,49.75
2022-11-15T07:07:53.854Z,49.95
2022-11-15T07:10:43.870Z,50.22
2022-11-15T07:13:35.305Z,50.35
2022-11-15T07:16:23.726Z,50.25
2022-11-15T07:19:12.733Z,48.38
2022-11-15T07:22:00.480Z,55.33
2022-11-15T07:24:50.875Z,58.45
2022-11-15T07:27:40.334Z,54.78
2022-11-15T07:30:31.486Z,53.83
2022-11-15T07:33:19.169Z,54.55
2022-11-15T07:36:08.618Z,54.05
2022-11-15T07:38:59.421Z,51.60
2022-11-15T07:41:51.830Z,49.45
2022-11-15T07:44:39.534Z,51.47
2022-11-15T07:47:30.472Z,48.97
2022-11-15T07:50:19.249Z,49.63
2022-11-15T07:53:07.503Z,57.13
2022-11-15T07:55:58.257Z,58.35
2022-11-15T07:58:47.924Z,53.65
2022-11-15T08:01:36.053Z,55.83
2022-11-15T08:04:24.120Z,58.33
2022-11-15T08:07:14.760Z,57.28
2022-11-15T08:10:02.977Z,55.42
2022-11-15T08:13:00.852Z,53.35
2022-11-15T08:15:52.261Z,55.67
2022-11-15T08:18:46.385Z,55.50
2022-11-15T08:21:34.904Z,58.78
2022-11-15T08:24:23.363Z,56.22
2022-11-15T08:27:17.661Z,58.20
2022-11-15T08:30:06.345Z,58.47
2022-11-15T08:32:58.710Z,59.03
2022-11-15T08:35:47.064Z,58.40
2022-11-15T08:38:36.138Z,51.53
2022-11-15T08:41:32.563Z,61.42
2022-11-15T08:44:21.487Z,53.53
2022-11-15T08:47:12.308Z,56.85
2022-11-15T08:50:01.045Z,56.10
2022-11-15T08:52:49.627Z,57.22
2022-11-15T08:55:39.543Z,53.00
2022-11-15T08:58:27.704Z,51.40
2022-11-15T09:01:20.308Z,56.55
2022-11-15T09:04:09.226Z,55.78
2022-11-15T09:06:58.268Z,64.93
2022-11-15T09:09:46.549Z,56.30
2022-11-15T09:12:35.451Z,63.25
2022-11-15T09:15:23.689Z,61.80
2022-11-15T09:18:12.250Z,55.42
2022-11-15T09:21:01.503Z,59.65
2022-11-15T09:23:53.340Z,59.88
2022-11-15T09:26:41.728Z,56.95
2022-11-15T09:29:31.538Z,51.47
2022-11-15T09:32:20.058Z,53.20
2022-11-15T09:35:08.742Z,50.03
2022-11-15T09:37:59.442Z,48.17
2022-11-15T09:40:55.529Z,51.15
2022-11-15T09:44:14.018Z,54.20
2022-11-15T09:47:28.901Z,54.47
2022-11-15T09:50:31.379Z,52.78
2022-11-15T09:53:05.540Z,54.22
2022-11-15T09:55:56.892Z,57.17
2022-11-15T09:58:42.287Z,57.17
2022-11-15T10:01:38.594Z,54.78
2022-11-15T10:06:54.798Z,56.72
2022-11-15T10:09:41.621Z,54.30
2022-11-15T10:12:15.445Z,53.22
2022-11-15T10:14:54.419Z,61.92
2022-11-15T10:17:47.313Z,55.97
2022-11-15T10:20:25.146Z,54.90
2022-11-15T10:23:01.651Z,55.15
2022-11-15T10:25:36.469Z,55.55
2022-11-15T10:28:16.356Z,58.60
2022-11-15T10:30:56.197Z,57.65
2022-11-15T10:33:37.856Z,49.92
2022-11-15T10:36:15.008Z,60.45
2022-11-15T10:38:51.685Z,63.15
2022-11-15T10:41:29.378Z,60.00
2022-11-15T10:44:08.657Z,57.45
2022-11-15T10:46:47.220Z,55.38
2022-11-15T10:49:30.643Z,50.70
2022-11-15T10:52:20.900Z,63.22
2022-11-15T10:55:08.289Z,63.53
2022-11-15T10:57:49.930Z,69.65
2022-11-15T11:00:40.820Z,71.80
2022-11-15T11:03:30.630Z,61.58
2022-11-15T11:06:08.313Z,57.33
2022-11-15T11:08:41.911Z,57.97
2022-11-15T11:11:15.575Z,64.68
2022-11-15T11:13:52.007Z,59.88
2022-11-15T11:16:43.147Z,67.25
2022-11-15T11:19:34.245Z,61.72
2022-11-15T11:22:26.953Z,58.30
2022-11-15T11:25:14.208Z,57.15
2022-11-15T11:28:09.420Z,59.03
2022-11-15T11:31:13.748Z,62.13
2022-11-15T11:34:07.228Z,57.00
2022-11-15T11:37:08.835Z,62.95
2022-11-15T11:39:59.148Z,65.90
2022-11-15T11:43:00.931Z,68.32
2022-11-15T11:45:51.972Z,65.95
2022-11-15T11:48:35.168Z,62.47
2022-11-15T11:51:24.639Z,72.25
2022-11-15T11:54:14.745Z,63.03
2022-11-15T11:56:47.837Z,72.57
2022-11-15T11:59:38.034Z,70.10
2022-11-15T12:02:19.899Z,76.18
2022-11-15T12:04:59.558Z,79.63
2022-11-15T12:07:36.561Z,62.38
2022-11-15T12:10:19.557Z,80.53
2022-11-15T12:13:05.891Z,64.93
2022-11-15T12:15:49.340Z,66.53
2022-11-15T12:18:22.611Z,69.85
2022-11-15T12:21:27.055Z,65.47
2022-11-15T12:24:08.349Z,71.60
2022-11-15T12:26:50.324Z,67.38
2022-11-15T12:29:39.703Z,64.80
2022-11-15T12:32:30.357Z,62.60
2022-11-15T12:35:07.628Z,65.63
2022-11-15T12:37:45.343Z,60.88
2022-11-15T12:40:26.819Z,66.53
2022-11-15T12:43:04.664Z,71.82
2022-11-15T12:45:40.635Z,67.25
2022-11-15T12:48:21.474Z,66.63
2022-11-15T12:50:57.539Z,61.97
2022-11-15T12:53:34.899Z,72.63
2022-11-15T12:56:16.751Z,72.40
2022-11-15T12:58:53.726Z,74.68
2022-11-15T13:01:35.404Z,77.28
2022-11-15T13:04:26.087Z,71.63
2022-11-15T13:07:09.113Z,70.47
2022-11-15T13:09:44.011Z,74.40
2022-11-15T13:12:28.854Z,77.03
2022-11-15T13:15:13.615Z,92.20
2022-11-15T13:17:47.979Z,68.80
2022-11-15T13:20:28.127Z,70.60
2022-11-15T13:23:09.063Z,73.43
2022-11-15T13:25:50.063Z,67.20
2022-11-15T13:28:31.711Z,64.97
2022-11-15T13:31:24.168Z,73.07
2022-11-15T13:34:10.055Z,74.80
2022-11-15T13:36:52.262Z,74.85
2022-11-15T13:39:33.154Z,93.32
2022-11-15T13:42:19.806Z,70.13
2022-11-15T13:45:01.252Z,63.08
2022-11-15T13:47:34.366Z,67.35
2022-11-15T13:50:12.239Z,71.93
2022-11-15T13:52:47.501Z,71.65
2022-11-15T13:55:24.178Z,71.80
2022-11-15T13:58:00.465Z,69.32
2022-11-15T14:00:48.786Z,82.63
2022-11-15T14:03:26.714Z,67.05
2022-11-15T14:06:08.922Z,70.45
2022-11-15T14:08:43.734Z,73.25
2022-11-15T14:11:19.899Z,67.15
2022-11-15T14:14:09.291Z,68.03
2022-11-15T14:16:45.775Z,77.10
2022-11-15T14:19:22.579Z,64.72
2022-11-15T14:22:22.378Z,64.82
2022-11-15T14:25:21.815Z,67.10
2022-11-15T14:28:25.915Z,70.18
2022-11-15T14:31:01.586Z,79.18
2022-11-15T14:33:37.116Z,76.53
2022-11-15T14:36:25.757Z,67.53
2022-11-15T14:38:59.011Z,75.20
2022-11-15T14:41:39.828Z,65.07
2022-11-15T14:44:13.586Z,63.22
2022-11-15T14:46:46.513Z,71.57
2022-11-15T14:49:19.363Z,56.70
2022-11-15T14:51:52.979Z,58.60
2022-11-15T14:54:27.087Z,55.17
2022-11-15T14:57:01.539Z,55.55
2022-11-15T14:59:34.509Z,52.83
2022-11-15T15:02:25.481Z,52.28
2022-11-15T15:05:02.501Z,69.20
2022-11-15T15:07:36.750Z,61.13
2022-11-15T15:10:38.174Z,49.95
2022-11-15T15:13:03.558Z,56.58
2022-11-15T15:15:39.082Z,51.08
2022-11-15T15:18:12.890Z,42.40
2022-11-15T15:20:56.955Z,46.83
2022-11-15T15:23:32.584Z,44.97
2022-11-15T15:26:05.621Z,47.33
2022-11-15T15:28:40.100Z,47.35
2022-11-15T15:31:14.511Z,48.10
2022-11-15T15:33:48.030Z,53.97
2022-11-15T15:36:24.269Z,49.67
2022-11-15T15:38:57.193Z,48.20
2022-11-15T15:41:30.928Z,47.40
2022-11-15T15:44:03.913Z,45.67
2022-11-15T15:46:36.649Z,46.40
2022-11-15T15:49:11.689Z,48.75
2022-11-15T15:51:44.997Z,49.90
2022-11-15T15:54:17.895Z,48.65
2022-11-15T15:56:55.954Z,49.40
2022-11-15T15:59:29.917Z,45.90
2022-11-15T16:02:03.728Z,47.85
2022-11-15T16:04:36.620Z,50.40
2022-11-15T16:07:19.399Z,45.40
2022-11-15T16:10:03.297Z,49.70
2022-11-15T16:12:36.733Z,46.92
2022-11-15T16:15:10.334Z,55.47
2022-11-15T16:17:57.852Z,50.03
2022-11-15T16:20:34.200Z,51.63
2022-11-15T16:23:10.558Z,48.13
2022-11-15T16:25:47.840Z,47.90
2022-11-15T16:28:24.835Z,49.05
2022-11-15T16:31:04.939Z,50.25
2022-11-15T16:33:38.246Z,53.15
2022-11-15T16:36:30.835Z,55.83
2022-11-15T16:39:05.429Z,53.17
2022-11-15T16:41:38.382Z,56.53
2022-11-15T16:44:11.290Z,53.80
2022-11-15T16:46:46.385Z,62.28
2022-11-15T16:49:21.715Z,50.25
2022-11-15T16:51:56.029Z,56.90
2022-11-15T16:54:28.899Z,56.65
2022-11-15T16:57:02.941Z,54.05
2022-11-15T16:59:39.225Z,56.45
2022-11-15T17:02:14.992Z,51.70
2022-11-15T17:04:48.515Z,60.67
2022-11-15T17:07:22.663Z,55.35
2022-11-15T17:12:31.444Z,61.28
2022-11-15T17:15:04.985Z,63.78
2022-11-15T17:17:38.185Z,53.53
2022-11-15T17:20:18.406Z,54.63
2022-11-15T17:22:53.186Z,63.92
2022-11-15T17:25:26.049Z,54.85
2022-11-15T17:27:59.066Z,65.50
2022-11-15T17:30:31.888Z,65.60
2022-11-15T17:33:05.656Z,58.30
2022-11-15T17:35:38.588Z,61.38
2022-11-15T17:38:12.998Z,60.00
2022-11-15T17:40:46.261Z,56.95
2022-11-15T17:43:19.102Z,60.05
2022-11-15T17:45:51.906Z,77.47
2022-11-15T17:48:25.049Z,63.47
2022-11-15T17:51:02.004Z,56.10
2022-11-15T17:53:37.852Z,68.88
2022-11-15T17:56:14.430Z,53.45
2022-11-15T17:58:51.551Z,64.70
2022-11-15T18:01:27.627Z,73.15
2022-11-15T18:04:02.903Z,60.35
2022-11-15T18:06:36.701Z,71.45
2022-11-15T18:09:09.652Z,61.97
2022-11-15T18:11:46.995Z,63.63
2022-11-15T18:14:21.356Z,61.17
2022-11-15T18:16:55.343Z,69.00
2022-11-15T18:19:28.891Z,67.03
2022-11-15T18:22:01.946Z,63.00
2022-11-15T18:24:39.205Z,76.32
2022-11-15T18:27:12.261Z,70.28
2022-11-15T18:29:45.247Z,57.58
2022-11-15T18:32:18.469Z,65.43
2022-11-15T18:34:51.868Z,78.97
2022-11-15T18:37:26.343Z,72.68
2022-11-15T18:39:59.620Z,88.18
2022-11-15T18:42:33.497Z,62.72
2022-11-15T18:45:07.084Z,66.85
2022-11-15T18:47:41.119Z,60.13
2022-11-15T18:50:14.026Z,59.13
2022-11-15T18:52:46.773Z,68.85
2022-11-15T18:55:19.889Z,58.72
2022-11-15T18:57:52.885Z,61.47
2022-11-15T19:00:27.138Z,65.55
2022-11-15T19:03:00.102Z,66.45
2022-11-15T19:05:33.081Z,68.40
2022-11-15T19:08:06.595Z,65.32
2022-11-15T19:10:39.470Z,66.78
2022-11-15T19:13:12.289Z,64.70
2022-11-15T19:15:45.190Z,69.10
2022-11-15T19:18:18.089Z,60.28
2022-11-15T19:20:51.489Z,59.05
2022-11-15T19:23:24.896Z,77.20
2022-11-15T19:25:59.848Z,59.90
2022-11-15T19:28:33.816Z,62.88
2022-11-15T19:31:08.463Z,79.72
2022-11-15T19:33:43.677Z,76.60
2022-11-15T19:36:19.757Z,60.55
2022-11-15T19:38:53.758Z,65.03
2022-11-15T19:41:27.485Z,73.43
2022-11-15T19:44:00.421Z,73.15
2022-11-15T19:46:33.408Z,66.45
2022-11-15T19:49:08.158Z,76.30
2022-11-15T19:51:42.927Z,71.63
2022-11-15T19:54:17.454Z,66.57
2022-11-15T19:56:52.552Z,72.53
2022-11-15T19:59:25.757Z,73.43
2022-11-15T20:01:58.644Z,84.38
2022-11-15T20:04:31.401Z,69.35
2022-11-15T20:07:04.311Z,62.55
2022-11-15T20:09:38.252Z,66.18
2022-11-15T20:12:11.160Z,61.25
2022-11-15T20:14:46.446Z,65.43
2022-11-15T20:19:52.050Z,66.20
2022-11-15T20:22:26.021Z,71.32
2022-11-15T20:24:58.847Z,74.03
2022-11-15T20:27:31.738Z,78.07
2022-11-15T20:30:05.228Z,86.25
2022-11-15T20:32:38.521Z,74.60
2022-11-15T20:35:11.402Z,78.18
2022-11-15T20:37:44.735Z,72.82
2022-11-15T20:40:18.099Z,80.80
2022-11-15T20:42:55.468Z,72.75
2022-11-15T20:45:28.314Z,75.65
2022-11-15T20:48:01.582Z,81.93
2022-11-15T20:50:43.292Z,81.43
2022-11-15T20:53:19.269Z,79.97
2022-11-15T20:55:52.630Z,68.85
2022-11-15T20:58:30.840Z,81.82
2022-11-15T21:01:07.246Z,77.43
2022-11-15T21:03:40.203Z,77.25
2022-11-15T21:06:13.483Z,75.50
2022-11-15T21:09:06.723Z,84.40
2022-11-15T21:11:55.775Z,83.55
2022-11-15T21:14:28.996Z,85.05
2022-11-15T21:17:01.771Z,90.85
2022-11-15T21:19:36.950Z,85.70
2022-11-15T21:22:14.317Z,89.00
2022-11-15T21:24:47.161Z,88.85
2022-11-15T21:27:19.959Z,83.57
2022-11-15T21:29:52.812Z,91.32
2022-11-15T21:32:25.726Z,82.18
2022-11-15T21:35:00.353Z,79.78
2022-11-15T21:37:33.116Z,91.65
2022-11-15T21:40:06.807Z,93.15
2022-11-15T21:42:39.649Z,94.20
2022-11-15T21:45:12.689Z,99.55
2022-11-15T21:47:46.634Z,83.53
2022-11-15T21:50:19.818Z,81.82
2022-11-15T21:52:53.059Z,84.05
2022-11-15T21:55:25.940Z,85.88
2022-11-15T21:57:58.788Z,74.40
2022-11-15T22:00:47.597Z,84.20
2022-11-15T22:03:20.505Z,81.68
2022-11-15T22:05:53.350Z,80.30
2022-11-15T22:08:26.533Z,92.22
2022-11-15T22:10:59.798Z,83.18
2022-11-15T22:13:32.563Z,85.50
2022-11-15T22:16:05.737Z,79.45
2022-11-15T22:18:39.067Z,78.22
2022-11-15T22:21:14.887Z,82.43
2022-11-15T22:23:47.696Z,77.57
2022-11-15T22:26:23.783Z,87.53
2022-11-15T22:28:57.354Z,84.18
2022-11-15T22:31:30.687Z,78.35
2022-11-15T22:34:04.040Z,79.57
2022-11-15T22:36:58.338Z,78.30
2022-11-15T22:39:29.927Z,83.75
2022-11-15T22:42:02.714Z,78.70
2022-11-15T22:44:35.466Z,74.60
2022-11-15T22:47:08.455Z,84.45
2022-11-15T22:49:42.599Z,87.55
2022-11-15T22:52:15.432Z,82.18
2022-11-15T22:54:48.330Z,83.55
2022-11-15T22:57:21.288Z,76.90
2022-11-15T22:59:54.128Z,84.70
2022-11-15T23:02:27.564Z,82.30
2022-11-15T23:05:00.265Z,77.10
2022-11-15T23:07:35.334Z,80.55
2022-11-15T23:10:23.917Z,78.68
2022-11-15T23:13:18.943Z,83.15
2022-11-15T23:16:08.412Z,69.80
2022-11-15T23:18:42.549Z,67.60
2022-11-15T23:21:34.104Z,79.80
2022-11-15T23:24:07.431Z,67.05
2022-11-15T23:26:41.113Z,71.60
2022-11-15T23:29:16.709Z,82.93
2022-11-15T23:32:05.237Z,68.50
2022-11-15T23:34:40.945Z,70.47
2022-11-15T23:37:15.734Z,74.82
2022-11-15T23:39:48.501Z,65.25
2022-11-15T23:42:21.224Z,75.93
2022-11-15T23:44:53.976Z,87.35
2022-11-15T23:47:26.692Z,73.95
2022-11-15T23:49:59.441Z,80.22
2022-11-15T23:52:32.077Z,87.13
2022-11-15T23:55:05.242Z,79.63
2022-11-15T23:57:38.144Z,77.00
